Avon, Mississippi
Current Conditions -  °F | °C
As of 5:53 PM on Wednesday 26 Nov 2014 (Local Time) from KGLH Reporting Station
Clear Clear  
Wind Chill: 51°   Ceiling: Unl
Heat Index: 51°   Visibility: 10mi
Dew Point: 37°   Wind: 5mph
Humidity: 59%   Direction: 270°W
Pressure: 30.13"   Gusts: NA
Location:  33.23°N, 91.05°W
Report Text: KGLH 262353Z AUTO 27004KT 10SM CLR 11/03 A3013 RMK AO2 SLP211 T01060028 10183 20100 51036
Loading
Personal Weather Stations






























Interactive Weather Map New forecast layout! Learn more

10-Day Weather Forecast

Advertisements
Track Severe Weather on mobile